createdAt,value
2019-02-09T00:00:53.456Z,10.20
2019-02-09T00:03:22.678Z,4.77
2019-02-09T00:05:51.842Z,4.23
2019-02-09T00:08:21.003Z,5.47
2019-02-09T00:10:50.197Z,5.57
2019-02-09T00:13:19.439Z,8.30
2019-02-09T00:15:48.605Z,6.57
2019-02-09T00:18:17.886Z,4.97
2019-02-09T00:20:47.044Z,5.63
2019-02-09T00:23:16.211Z,7.77
2019-02-09T00:25:45.412Z,5.33
2019-02-09T00:28:14.641Z,5.57
2019-02-09T00:30:43.812Z,7.73
2019-02-09T00:33:13.011Z,5.33
2019-02-09T00:35:42.243Z,9.47
2019-02-09T00:38:11.458Z,7.87
2019-02-09T00:40:40.689Z,4.87
2019-02-09T00:43:09.856Z,9.07
2019-02-09T00:45:40.831Z,7.57
2019-02-09T00:48:10.011Z,6.43
2019-02-09T00:50:39.179Z,9.17
2019-02-09T00:53:08.340Z,4.07
2019-02-09T00:55:37.542Z,6.47
2019-02-09T00:58:06.727Z,9.27
2019-02-09T01:00:36.046Z,11.00
2019-02-09T01:03:05.314Z,9.73
2019-02-09T01:05:45.772Z,8.23
2019-02-09T01:08:15.975Z,12.13
2019-02-09T01:10:45.501Z,7.40
2019-02-09T01:13:14.660Z,5.70
2019-02-09T01:15:44.075Z,12.53
2019-02-09T01:18:13.250Z,8.17
2019-02-09T01:20:42.634Z,6.87
2019-02-09T01:23:11.837Z,6.73
2019-02-09T01:25:41.032Z,13.80
2019-02-09T01:28:10.270Z,12.50
2019-02-09T01:30:39.465Z,15.90
2019-02-09T01:33:08.704Z,13.40
2019-02-09T01:35:38.112Z,8.80
2019-02-09T01:38:07.397Z,9.13
2019-02-09T01:40:36.582Z,10.53
2019-02-09T01:43:05.827Z,10.17
2019-02-09T01:45:35.085Z,8.83
2019-02-09T01:48:04.704Z,6.53
2019-02-09T01:50:34.137Z,10.80
2019-02-09T01:53:04.550Z,4.43
2019-02-09T01:55:33.925Z,6.80
2019-02-09T01:58:05.525Z,8.13
2019-02-09T02:00:36.893Z,11.53
2019-02-09T02:03:06.510Z,3.73
2019-02-09T02:05:36.704Z,7.70
2019-02-09T02:08:05.887Z,3.03
2019-02-09T02:10:37.756Z,7.00
2019-02-09T02:13:09.365Z,14.10
2019-02-09T02:15:40.196Z,14.60
2019-02-09T02:18:10.524Z,7.73
2019-02-09T02:20:39.855Z,9.30
2019-02-09T02:23:09.052Z,10.50
2019-02-09T02:25:38.647Z,13.13
2019-02-09T02:28:07.854Z,15.00
2019-02-09T02:30:39.141Z,9.30
2019-02-09T02:33:08.918Z,12.03
2019-02-09T02:35:38.676Z,8.23
2019-02-09T02:38:08.225Z,11.17
2019-02-09T02:40:37.531Z,8.17
2019-02-09T02:43:06.750Z,10.63
2019-02-09T02:45:36.026Z,7.83
2019-02-09T02:48:06.021Z,10.90
2019-02-09T02:50:35.140Z,11.37
2019-02-09T02:53:04.480Z,13.37
2019-02-09T02:55:34.094Z,9.10
2019-02-09T02:58:03.336Z,14.50
2019-02-09T03:00:36.156Z,13.97
2019-02-09T03:03:05.409Z,14.37
2019-02-09T03:05:35.810Z,20.73
2019-02-09T03:08:06.910Z,18.40
2019-02-09T03:10:36.978Z,13.63
2019-02-09T03:13:06.239Z,13.03
2019-02-09T03:15:36.151Z,19.63
2019-02-09T03:18:05.709Z,13.70
2019-02-09T03:20:34.862Z,12.53
2019-02-09T03:23:04.614Z,18.17
2019-02-09T03:25:35.450Z,10.50
2019-02-09T03:28:04.766Z,14.60
2019-02-09T03:30:47.127Z,23.20
2019-02-09T03:33:05.192Z,17.87
2019-02-09T03:35:34.422Z,18.80
2019-02-09T03:38:03.669Z,11.60
2019-02-09T03:40:32.868Z,17.00
2019-02-09T03:43:02.043Z,22.43
2019-02-09T03:45:32.962Z,15.63
2019-02-09T03:48:02.510Z,22.70
2019-02-09T03:50:33.473Z,16.80
2019-02-09T03:53:03.088Z,18.03
2019-02-09T03:55:32.355Z,16.90
2019-02-09T03:58:01.605Z,21.50
2019-02-09T04:00:33.590Z,18.60
2019-02-09T04:03:03.230Z,12.17
2019-02-09T04:05:32.408Z,8.30
2019-02-09T04:08:01.651Z,13.20
2019-02-09T04:10:30.908Z,19.93
2019-02-09T04:13:00.075Z,18.87
2019-02-09T04:15:31.042Z,18.30
2019-02-09T04:18:00.160Z,16.37
2019-02-09T04:20:29.340Z,18.20
2019-02-09T04:22:58.509Z,14.33
2019-02-09T04:25:27.768Z,13.70
2019-02-09T04:27:56.890Z,11.13
2019-02-09T04:30:28.347Z,17.77
2019-02-09T04:32:57.772Z,18.27
2019-02-09T04:35:26.950Z,16.67
2019-02-09T04:37:56.183Z,19.97
2019-02-09T04:40:30.347Z,18.67
2019-02-09T04:42:59.659Z,21.30
2019-02-09T04:45:29.205Z,16.13
2019-02-09T04:47:58.668Z,16.13
2019-02-09T04:50:27.837Z,19.90
2019-02-09T04:52:57.019Z,14.47
2019-02-09T04:55:27.706Z,16.93
2019-02-09T04:57:57.021Z,24.27
2019-02-09T05:00:31.400Z,23.20
2019-02-09T05:03:00.910Z,21.67
2019-02-09T05:05:31.142Z,13.60
2019-02-09T05:08:00.343Z,11.37
2019-02-09T05:10:29.508Z,12.83
2019-02-09T05:12:58.671Z,16.63
2019-02-09T05:15:30.426Z,12.13
2019-02-09T05:17:59.631Z,14.67
2019-02-09T05:20:28.740Z,17.10
2019-02-09T05:22:57.908Z,20.73
2019-02-09T05:25:27.099Z,19.00
2019-02-09T05:27:56.653Z,14.57
2019-02-09T05:30:27.673Z,19.10
2019-02-09T05:32:57.227Z,19.83
2019-02-09T05:35:26.466Z,11.33
2019-02-09T05:37:55.698Z,16.17
2019-02-09T05:40:27.109Z,17.20
2019-02-09T05:42:56.282Z,23.40
2019-02-09T05:45:27.524Z,10.47
2019-02-09T05:47:56.761Z,15.93
2019-02-09T05:50:25.917Z,12.07
2019-02-09T05:52:55.088Z,10.70
2019-02-09T05:55:24.370Z,12.37
2019-02-09T05:57:53.602Z,17.63
2019-02-09T06:00:35.539Z,22.27
2019-02-09T06:03:04.903Z,10.17
2019-02-09T06:05:34.414Z,18.47
2019-02-09T06:08:03.700Z,17.40
2019-02-09T06:10:32.962Z,19.70
2019-02-09T06:13:02.182Z,18.97
2019-02-09T06:15:31.502Z,18.67
2019-02-09T06:18:00.623Z,23.60
2019-02-09T06:20:31.511Z,13.40
2019-02-09T06:23:00.722Z,19.40
2019-02-09T06:25:29.893Z,20.63
2019-02-09T06:27:59.041Z,21.23
2019-02-09T06:30:30.936Z,17.10
2019-02-09T06:33:00.654Z,22.10
2019-02-09T06:35:30.187Z,19.93
2019-02-09T06:37:59.396Z,24.33
2019-02-09T06:40:28.572Z,31.07
2019-02-09T06:42:57.739Z,28.57
2019-02-09T06:45:27.862Z,26.30
2019-02-09T06:48:25.407Z,26.97
2019-02-09T06:50:56.246Z,26.53
2019-02-09T06:53:25.472Z,26.23
2019-02-09T06:55:54.652Z,26.47
2019-02-09T06:58:23.908Z,28.17
2019-02-09T07:00:53.229Z,25.03
2019-02-09T07:03:22.484Z,26.87
2019-02-09T07:05:51.672Z,18.93
2019-02-09T07:08:20.840Z,17.27
2019-02-09T07:10:50.093Z,27.83
2019-02-09T07:13:19.269Z,27.83
2019-02-09T07:15:48.512Z,29.60
2019-02-09T07:18:18.662Z,25.30
2019-02-09T07:20:47.976Z,28.87
2019-02-09T07:23:17.153Z,25.23
2019-02-09T07:25:46.418Z,26.43
2019-02-09T07:28:15.680Z,26.00
2019-02-09T07:30:45.791Z,28.03
2019-02-09T07:33:14.968Z,35.80
2019-02-09T07:35:44.250Z,17.33
2019-02-09T07:38:13.425Z,22.63
2019-02-09T07:40:42.624Z,24.40
2019-02-09T07:43:11.798Z,21.60
2019-02-09T07:45:41.045Z,19.67
2019-02-09T07:48:11.192Z,23.33
2019-02-09T07:50:40.393Z,23.27
2019-02-09T07:53:09.573Z,18.47
2019-02-09T07:55:38.652Z,25.23
2019-02-09T07:58:07.879Z,28.23
2019-02-09T08:00:37.590Z,28.37
2019-02-09T08:03:06.830Z,18.10
2019-02-09T08:05:53.795Z,15.17
2019-02-09T08:08:41.006Z,17.10
2019-02-09T08:11:10.272Z,27.67
2019-02-09T08:13:39.438Z,24.03
2019-02-09T08:16:08.846Z,19.30
2019-02-09T08:18:39.430Z,25.87
2019-02-09T08:21:08.782Z,25.93
2019-02-09T08:23:37.964Z,22.20
2019-02-09T08:26:07.246Z,22.70
2019-02-09T08:28:36.496Z,24.27
2019-02-09T08:31:05.800Z,20.60
2019-02-09T08:33:34.998Z,27.90
2019-02-09T08:36:04.442Z,26.87
2019-02-09T08:38:33.627Z,20.17
2019-02-09T08:41:02.832Z,25.93
2019-02-09T08:43:31.996Z,25.30
2019-02-09T08:46:01.178Z,21.77
2019-02-09T08:48:30.380Z,18.33
2019-02-09T08:51:02.594Z,20.10
2019-02-09T08:53:31.810Z,21.13
2019-02-09T08:56:01.052Z,28.67
2019-02-09T08:58:34.252Z,24.17
2019-02-09T09:01:04.698Z,16.43
2019-02-09T09:03:33.857Z,20.50
2019-02-09T09:06:03.189Z,29.37
2019-02-09T09:08:34.319Z,27.37
2019-02-09T09:11:03.582Z,20.40
2019-02-09T09:13:32.814Z,20.17
2019-02-09T09:16:19.957Z,22.00
2019-02-09T09:18:49.045Z,15.80
2019-02-09T09:21:18.211Z,18.97
2019-02-09T09:23:47.414Z,19.90
2019-02-09T09:26:16.585Z,17.67
2019-02-09T09:28:47.764Z,15.73
2019-02-09T09:31:17.014Z,17.63
2019-02-09T09:33:46.195Z,20.60
2019-02-09T09:36:15.427Z,19.33
2019-02-09T09:38:44.645Z,22.50
2019-02-09T09:41:13.843Z,24.17
2019-02-09T09:43:43.021Z,19.03
2019-02-09T09:46:12.311Z,18.23
2019-02-09T09:48:41.491Z,13.47
2019-02-09T09:51:10.658Z,27.00
2019-02-09T09:53:39.784Z,20.43
2019-02-09T09:56:09.009Z,18.83
2019-02-09T09:58:38.198Z,30.23
2019-02-09T10:01:07.583Z,20.73
2019-02-09T10:03:36.755Z,18.73
2019-02-09T10:06:05.921Z,19.77
2019-02-09T10:08:35.126Z,25.83
2019-02-09T10:11:04.417Z,30.23
2019-02-09T10:13:33.604Z,20.83
2019-02-09T10:16:02.865Z,19.83
2019-02-09T10:18:32.054Z,20.00
2019-02-09T10:21:01.233Z,28.67
2019-02-09T10:23:30.349Z,21.33
2019-02-09T10:25:59.524Z,24.40
2019-02-09T10:28:28.691Z,22.33
2019-02-09T10:30:57.939Z,23.00
2019-02-09T10:33:27.068Z,22.90
2019-02-09T10:35:56.260Z,26.17
2019-02-09T10:38:25.459Z,18.63
2019-02-09T10:40:55.671Z,20.20
2019-02-09T10:43:24.857Z,31.83
2019-02-09T10:45:54.159Z,24.57
2019-02-09T10:48:23.288Z,24.60
2019-02-09T10:50:52.805Z,23.70
2019-02-09T10:53:39.979Z,19.20
2019-02-09T10:56:09.219Z,22.63
2019-02-09T10:58:38.401Z,21.13
2019-02-09T11:01:11.499Z,18.13
2019-02-09T11:03:40.680Z,17.87
2019-02-09T11:06:09.886Z,23.00
2019-02-09T11:08:39.079Z,14.60
2019-02-09T11:11:08.337Z,23.10
2019-02-09T11:13:37.640Z,19.37
2019-02-09T11:16:06.864Z,16.87
2019-02-09T11:18:36.039Z,19.53
2019-02-09T11:21:05.317Z,18.37
2019-02-09T11:23:34.501Z,11.37
2019-02-09T11:26:03.797Z,24.67
2019-02-09T11:28:32.988Z,19.32
2019-02-09T11:31:02.159Z,18.57
2019-02-09T11:33:31.833Z,27.10
2019-02-09T11:36:01.034Z,20.03
2019-02-09T11:38:30.218Z,18.50
2019-02-09T11:41:01.104Z,23.53
2019-02-09T11:43:30.484Z,20.17
2019-02-09T11:45:59.630Z,21.23
2019-02-09T11:48:28.806Z,15.27
2019-02-09T11:50:58.134Z,15.40
2019-02-09T11:53:27.307Z,27.03
2019-02-09T11:55:56.487Z,20.37
2019-02-09T11:58:25.686Z,23.27
2019-02-09T12:00:54.939Z,17.57
2019-02-09T12:03:24.122Z,26.67
2019-02-09T12:05:53.352Z,18.63
2019-02-09T12:08:22.526Z,22.27
2019-02-09T12:10:51.777Z,14.97
2019-02-09T12:13:20.990Z,24.67
2019-02-09T12:15:50.126Z,19.60
2019-02-09T12:18:19.300Z,25.50
2019-02-09T12:20:48.490Z,23.80
2019-02-09T12:23:17.693Z,26.80
2019-02-09T12:25:46.853Z,24.83
2019-02-09T12:28:16.073Z,25.70
2019-02-09T12:30:45.438Z,26.60
2019-02-09T12:33:22.527Z,26.37
2019-02-09T12:35:45.620Z,22.77
2019-02-09T12:38:15.799Z,25.53
2019-02-09T12:40:45.001Z,23.07
2019-02-09T12:43:14.203Z,24.23
2019-02-09T12:45:44.350Z,21.07
2019-02-09T12:48:13.586Z,26.23
2019-02-09T12:50:43.042Z,24.07
2019-02-09T12:53:12.237Z,22.23
2019-02-09T12:55:41.411Z,20.97
2019-02-09T12:58:12.596Z,22.03
2019-02-09T13:00:41.847Z,24.23
2019-02-09T13:03:31.325Z,28.43
2019-02-09T13:06:02.281Z,16.50
2019-02-09T13:08:31.454Z,15.93
2019-02-09T13:11:00.712Z,17.57
2019-02-09T13:13:29.882Z,17.43
2019-02-09T13:16:05.345Z,14.80
2019-02-09T13:18:34.569Z,16.73
2019-02-09T13:21:05.932Z,30.37
2019-02-09T13:23:35.124Z,13.87
2019-02-09T13:26:07.464Z,31.20
2019-02-09T13:28:36.643Z,25.70
2019-02-09T13:31:05.906Z,16.77
2019-02-09T13:33:38.994Z,20.23
2019-02-09T13:36:06.978Z,20.67
2019-02-09T13:38:36.185Z,18.63
2019-02-09T13:41:05.350Z,23.33
2019-02-09T13:43:34.558Z,26.67
2019-02-09T13:46:04.080Z,25.53
2019-02-09T13:48:33.327Z,22.57
2019-02-09T13:51:02.566Z,17.93
2019-02-09T13:53:31.762Z,18.10
2019-02-09T13:56:00.945Z,19.03
2019-02-09T13:58:30.335Z,22.63
2019-02-09T14:00:59.519Z,24.73
2019-02-09T14:03:28.691Z,24.80
2019-02-09T14:05:57.872Z,25.07
2019-02-09T14:08:27.063Z,22.63
2019-02-09T14:10:56.374Z,28.37
2019-02-09T14:13:25.528Z,29.17
2019-02-09T14:15:54.721Z,31.37
2019-02-09T14:18:23.931Z,29.97
2019-02-09T14:20:53.112Z,25.13
2019-02-09T14:23:22.310Z,26.57
2019-02-09T14:25:51.555Z,30.07
2019-02-09T14:28:22.348Z,24.80
2019-02-09T14:30:51.553Z,26.87
2019-02-09T14:33:20.830Z,18.00
2019-02-09T14:35:50.013Z,28.47
2019-02-09T14:38:19.198Z,20.33
2019-02-09T14:40:48.440Z,24.83
2019-02-09T14:43:17.621Z,22.60
2019-02-09T14:45:46.812Z,22.23
2019-02-09T14:48:16.009Z,23.47
2019-02-09T14:50:45.184Z,25.83
2019-02-09T14:53:14.446Z,27.53
2019-02-09T14:55:43.712Z,33.73
2019-02-09T14:58:14.302Z,31.00
2019-02-09T15:00:49.245Z,26.20
2019-02-09T15:03:26.202Z,27.13
2019-02-09T15:05:49.403Z,22.47
2019-02-09T15:08:18.603Z,23.40
2019-02-09T15:10:47.790Z,30.93
2019-02-09T15:13:17.021Z,23.43
2019-02-09T15:15:50.165Z,26.40
2019-02-09T15:18:19.429Z,22.97
2019-02-09T15:21:00.827Z,24.60
2019-02-09T15:23:30.022Z,20.50
2019-02-09T15:25:59.195Z,25.70
2019-02-09T15:28:28.303Z,28.87
2019-02-09T15:30:57.485Z,26.83
2019-02-09T15:33:26.736Z,22.83
2019-02-09T15:35:55.938Z,24.77
2019-02-09T15:38:25.102Z,23.87
2019-02-09T15:40:54.282Z,16.53
2019-02-09T15:43:23.471Z,18.73
2019-02-09T15:45:52.764Z,23.13
2019-02-09T15:48:22.462Z,23.67
2019-02-09T15:50:51.828Z,30.87
2019-02-09T15:53:21.012Z,23.50
2019-02-09T15:55:50.212Z,22.83
2019-02-09T15:58:19.390Z,27.53
2019-02-09T16:00:48.655Z,20.33
2019-02-09T16:03:17.870Z,32.20
2019-02-09T16:05:48.692Z,26.80
2019-02-09T16:08:17.874Z,25.23
2019-02-09T16:10:47.082Z,21.90
2019-02-09T16:13:16.256Z,33.17
2019-02-09T16:15:45.431Z,27.43
2019-02-09T16:18:14.636Z,20.60
2019-02-09T16:21:01.756Z,21.67
2019-02-09T16:23:30.962Z,25.77
2019-02-09T16:26:00.150Z,19.80
2019-02-09T16:28:29.340Z,31.17
2019-02-09T16:30:58.636Z,23.13
2019-02-09T16:33:27.909Z,24.97
2019-02-09T16:35:57.086Z,20.87
2019-02-09T16:38:26.295Z,29.60
2019-02-09T16:40:55.478Z,33.63
2019-02-09T16:43:24.710Z,21.60
2019-02-09T16:45:53.860Z,23.93
2019-02-09T16:48:23.034Z,26.00
2019-02-09T16:50:52.213Z,22.57
2019-02-09T16:53:21.413Z,25.67
2019-02-09T16:55:50.586Z,20.07
2019-02-09T16:58:20.110Z,23.03
2019-02-09T17:00:49.315Z,24.10
2019-02-09T17:03:18.565Z,32.50
2019-02-09T17:05:47.746Z,34.93
2019-02-09T17:08:16.951Z,29.03
2019-02-09T17:10:46.159Z,25.87
2019-02-09T17:13:15.303Z,32.07
2019-02-09T17:15:44.569Z,24.57
2019-02-09T17:18:13.750Z,24.27
2019-02-09T17:20:42.962Z,27.20
2019-02-09T17:23:12.249Z,24.33
2019-02-09T17:25:41.431Z,20.73
2019-02-09T17:28:10.598Z,19.27
2019-02-09T17:30:40.016Z,23.57
2019-02-09T17:33:09.270Z,19.63
2019-02-09T17:35:38.467Z,25.43
2019-02-09T17:38:07.912Z,25.67
2019-02-09T17:40:43.487Z,25.37
2019-02-09T17:43:12.792Z,18.97
2019-02-09T17:45:48.166Z,23.37
2019-02-09T17:48:17.700Z,20.57
2019-02-09T17:50:46.874Z,20.70
2019-02-09T17:53:16.098Z,21.93
2019-02-09T17:55:45.283Z,25.30
2019-02-09T17:58:14.470Z,31.00
2019-02-09T18:00:52.130Z,26.83
2019-02-09T18:03:21.306Z,24.97
2019-02-09T18:05:50.481Z,22.13
2019-02-09T18:08:20.674Z,28.37
2019-02-09T18:10:49.859Z,20.63
2019-02-09T18:13:19.040Z,20.60
2019-02-09T18:15:48.232Z,25.43
2019-02-09T18:18:17.475Z,20.10
2019-02-09T18:20:46.670Z,21.77
2019-02-09T18:23:18.867Z,22.13
2019-02-09T18:25:48.047Z,29.90
2019-02-09T18:28:17.237Z,23.63
2019-02-09T18:30:46.446Z,20.00
2019-02-09T18:33:15.636Z,18.90
2019-02-09T18:35:44.841Z,25.37
2019-02-09T18:38:14.061Z,17.97
2019-02-09T18:40:43.323Z,23.67
2019-02-09T18:43:12.500Z,23.80
2019-02-09T18:45:41.689Z,24.43
2019-02-09T18:48:10.948Z,22.03
2019-02-09T18:50:40.210Z,27.60
2019-02-09T18:53:09.650Z,19.93
2019-02-09T18:55:39.036Z,27.53
2019-02-09T18:58:09.471Z,17.83
2019-02-09T19:00:43.107Z,16.20
2019-02-09T19:03:12.378Z,16.37
2019-02-09T19:05:41.573Z,20.43
2019-02-09T19:08:10.928Z,18.67
2019-02-09T19:10:40.102Z,20.50
2019-02-09T19:13:12.568Z,26.30
2019-02-09T19:15:41.761Z,20.93
2019-02-09T19:18:11.202Z,17.37
2019-02-09T19:20:43.805Z,18.77
2019-02-09T19:23:13.060Z,16.27
2019-02-09T19:25:42.321Z,19.03
2019-02-09T19:28:16.101Z,14.93
2019-02-09T19:30:45.278Z,20.83
2019-02-09T19:33:14.449Z,18.53
2019-02-09T19:35:44.691Z,18.80
2019-02-09T19:38:13.864Z,20.07
2019-02-09T19:40:43.038Z,18.60
2019-02-09T19:43:12.231Z,23.17
2019-02-09T19:45:41.386Z,26.87
2019-02-09T19:48:11.459Z,17.43
2019-02-09T19:50:40.963Z,20.93
2019-02-09T19:53:10.374Z,19.63
2019-02-09T19:55:39.475Z,20.37
2019-02-09T19:58:08.672Z,13.67
2019-02-09T20:00:45.304Z,22.00
2019-02-09T20:03:14.496Z,27.33
2019-02-09T20:05:43.751Z,20.00
2019-02-09T20:08:13.309Z,19.47
2019-02-09T20:10:43.635Z,15.40
2019-02-09T20:13:14.130Z,17.10
2019-02-09T20:15:43.392Z,19.03
2019-02-09T20:18:13.518Z,20.77
2019-02-09T20:20:47.152Z,12.87
2019-02-09T20:23:13.632Z,14.30
2019-02-09T20:25:42.837Z,22.20
2019-02-09T20:28:12.019Z,15.17
2019-02-09T20:30:42.733Z,22.03
2019-02-09T20:33:12.007Z,20.13
2019-02-09T20:35:41.243Z,23.07
2019-02-09T20:38:10.492Z,13.70
2019-02-09T20:40:48.929Z,16.80
2019-02-09T20:43:20.641Z,20.17
2019-02-09T20:45:50.258Z,14.57
2019-02-09T20:48:19.452Z,18.27
2019-02-09T20:50:48.660Z,16.90
2019-02-09T20:53:17.914Z,18.87
2019-02-09T20:55:47.251Z,21.83
2019-02-09T20:58:16.587Z,17.13
2019-02-09T21:00:45.832Z,19.47
2019-02-09T21:03:15.025Z,26.80
2019-02-09T21:05:45.832Z,13.17
2019-02-09T21:08:15.004Z,14.63
2019-02-09T21:10:45.863Z,18.43
2019-02-09T21:13:15.034Z,16.90
2019-02-09T21:15:44.375Z,17.57
2019-02-09T21:18:13.573Z,12.57
2019-02-09T21:20:42.748Z,14.70
2019-02-09T21:23:12.015Z,15.60
2019-02-09T21:25:46.471Z,12.47
2019-02-09T21:28:15.641Z,19.77
2019-02-09T21:30:45.334Z,18.47
2019-02-09T21:33:14.531Z,11.50
2019-02-09T21:35:44.521Z,27.47
2019-02-09T21:38:13.808Z,14.53
2019-02-09T21:40:43.010Z,22.93
2019-02-09T21:43:12.296Z,20.87
2019-02-09T21:45:45.217Z,17.00
2019-02-09T21:48:12.429Z,15.00
2019-02-09T21:50:41.589Z,13.17
2019-02-09T21:53:10.875Z,13.83
2019-02-09T21:55:40.119Z,16.87
2019-02-09T21:58:09.441Z,17.40
2019-02-09T22:00:45.637Z,10.80
2019-02-09T22:03:14.984Z,16.43
2019-02-09T22:05:51.541Z,14.43
2019-02-09T22:08:19.552Z,17.07
2019-02-09T22:10:47.863Z,16.07
2019-02-09T22:13:17.044Z,16.27
2019-02-09T22:15:46.336Z,17.77
2019-02-09T22:18:15.513Z,15.97
2019-02-09T22:20:52.327Z,13.93
2019-02-09T22:23:15.615Z,11.93
2019-02-09T22:25:44.819Z,11.83
2019-02-09T22:28:14.053Z,15.27
2019-02-09T22:30:43.255Z,13.33
2019-02-09T22:33:12.438Z,18.33
2019-02-09T22:35:41.600Z,14.83
2019-02-09T22:38:10.804Z,19.67
2019-02-09T22:40:41.332Z,15.57
2019-02-09T22:43:12.426Z,11.17
2019-02-09T22:45:41.693Z,19.30
2019-02-09T22:48:11.029Z,13.33
2019-02-09T22:50:43.255Z,10.77
2019-02-09T22:53:12.469Z,12.43
2019-02-09T22:55:41.656Z,14.97
2019-02-09T22:58:10.915Z,14.00
2019-02-09T23:00:52.103Z,9.80
2019-02-09T23:03:27.043Z,10.03
2019-02-09T23:06:14.512Z,15.93
2019-02-09T23:08:45.495Z,10.17
2019-02-09T23:11:14.682Z,11.00
2019-02-09T23:13:43.893Z,13.00
2019-02-09T23:16:13.082Z,15.90
2019-02-09T23:18:42.247Z,12.10
2019-02-09T23:21:11.466Z,11.17
2019-02-09T23:23:40.637Z,14.40
2019-02-09T23:26:09.821Z,10.90
2019-02-09T23:28:39.475Z,12.10
2019-02-09T23:31:08.633Z,8.77
2019-02-09T23:33:37.813Z,12.40
2019-02-09T23:36:07.027Z,10.53
2019-02-09T23:38:36.205Z,14.27
2019-02-09T23:41:05.386Z,12.97
2019-02-09T23:43:34.576Z,12.27
2019-02-09T23:46:03.774Z,11.97
2019-02-09T23:48:32.969Z,10.43
2019-02-09T23:51:02.171Z,11.47
2019-02-09T23:53:31.814Z,12.37
2019-02-09T23:56:01.023Z,15.83
2019-02-09T23:58:30.223Z,10.67
